Seven Seas Voyager — C6SW3 — position and weather

sailwx.info

Track history (hours):
 
Tides and Currents Weather Stations Pressure Air Temp Water Temp Dewpoint Dewpoint Depression Visibility Wind Speed Wind Dir Waves Ship Positions

Seven Seas Voyager

Last reported at 2019-Aug-20 01:27 UTC. Time now 2019-Aug-20 09:38 UTC.
Position N 42°38' E 004°22'.

Length 205 m; draft 7 m.

Type: Ship. MMSI: 31151000.

Date/timePositionNaut miles runAvg speedWind from/ knotsBaromVisibWave heightAir tempDewpointWater temp
2019-Aug-20 01:27N 42°38' E 004°22'10015.6
2019-Aug-19 19:00N 41°30' E 002°42'1 2.9 070 / 271016.010.8 25.019.1
2019-Aug-19 18:47N 41°31' E 002°42'615.2
2019-Aug-19 18:21N 41°27' E 002°34'515.4
2019-Aug-19 18:01N 41°24' E 002°28'815.3
2019-Aug-19 17:31N 41°20' E 002°20'714.7
2019-Aug-19 17:01N 41°16' E 002°12'510.2
2019-Aug-19 16:30N 41°21' E 002°10'1 1.4
2019-Aug-19 15:55N 41°22' E 002°11'0 0.0
2019-Aug-19 15:25N 41°22' E 002°11'0 0.0
2019-Aug-19 14:55N 41°22' E 002°11'0 0.0
2019-Aug-19 14:25N 41°22' E 002°11'0 0.0
2019-Aug-19 13:55N 41°22' E 002°11'0 0.0
2019-Aug-19 13:19N 41°22' E 002°11'0 0.0
2019-Aug-19 12:55N 41°22' E 002°11'0 0.0
2019-Aug-19 12:25N 41°22' E 002°11'0 0.0
2019-Aug-19 11:55N 41°22' E 002°11'0 0.0
2019-Aug-19 11:25N 41°22' E 002°11'0 0.0
2019-Aug-19 10:55N 41°22' E 002°11'0 0.0
2019-Aug-19 10:25N 41°22' E 002°11'0 0.0
2019-Aug-19 09:55N 41°22' E 002°11'0 0.0
2019-Aug-19 09:25N 41°22' E 002°11'0 0.0
2019-Aug-19 08:55N 41°22' E 002°11'0 0.0
2019-Aug-19 08:19N 41°22' E 002°11'0 0.0
2019-Aug-19 07:55N 41°22' E 002°11'0 0.0
2019-Aug-19 07:25N 41°22' E 002°11'0 0.0
2019-Aug-19 06:55N 41°22' E 002°11'0 0.0
2019-Aug-19 06:25N 41°22' E 002°11'0 0.0
2019-Aug-19 05:55N 41°22' E 002°11'0 0.0
2019-Aug-19 05:25N 41°22' E 002°11'0 0.0
2019-Aug-19 04:55N 41°22' E 002°11'0 0.0
2019-Aug-19 04:25N 41°22' E 002°11'0 0.0
2019-Aug-19 03:55N 41°22' E 002°11'0 0.3
2019-Aug-19 03:30N 41°22' E 002°11'3 6.5
2019-Aug-19 03:00N 41°18' E 002°10'4 8.5
2019-Aug-19 02:31N 41°16' E 002°15'510.9
2019-Aug-19 02:01N 41°16' E 002°22'510.5
2019-Aug-19 01:30N 41°16' E 002°30'510.1
2019-Aug-19 01:00N 41°16' E 002°36'5 9.5
2019-Aug-19 00:27N 41°18' E 002°43'5 9.7
2019-Aug-18 23:56N 41°21' E 002°48'4 9.6
2019-Aug-18 23:30N 41°23' E 002°53'5 9.9
2019-Aug-18 23:00N 41°26' E 002°58'5 9.3
2019-Aug-18 22:30N 41°29' E 003°02'510.1
2019-Aug-18 22:00N 41°35' E 003°02'510.0
2019-Aug-18 21:30N 41°39' E 003°04'610.6
2019-Aug-18 20:59N 41°45' E 003°06'3 3.3
2019-Aug-18 20:00N 41°48' E 003°06'24 1.5 180 / 101011.010.8 23.021.6
2019-Aug-18 03:38N 41°58' E 003°36'214.2
2019-Aug-18 03:30N 41°58' E 003°38'814.4
2019-Aug-18 02:58N 42°01' E 003°48'714.7
2019-Aug-18 02:30N 42°04' E 003°56'1214.8
2019-Aug-18 01:40N 42°09' E 004°11'614.5
2019-Aug-18 01:15N 42°11' E 004°19'414.7
2019-Aug-18 01:00N 42°13' E 004°23'714.8
2019-Aug-18 00:30N 42°15' E 004°33'815.1
2019-Aug-18 00:00N 42°18' E 004°42'815.1
2019-Aug-17 23:30N 42°21' E 004°51'815.0
2019-Aug-17 22:59N 42°24' E 005°01'815.0
2019-Aug-17 22:27N 42°27' E 005°11'715.0
2019-Aug-17 22:00N 42°30' E 005°20'714.9
2019-Aug-17 21:30N 42°33' E 005°29'815.0
2019-Aug-17 21:00N 42°36' E 005°38'2122.8
2019-Aug-17 21:00N 42°36' E 005°36'918.4 360 / 101015.010.8 23.021.6
2019-Aug-17 20:30N 42°39' E 005°48'611.2
2019-Aug-17 20:00N 42°42' E 005°54'531.5 230 / 151015.010.8 23.021.6
2019-Aug-17 19:51N 42°42' E 006°00'515.0
2019-Aug-17 19:30N 42°45' E 006°07'714.9
2019-Aug-17 19:00N 42°49' E 006°15'714.7
2019-Aug-17 18:30N 42°53' E 006°23'1515.0
2019-Aug-17 17:30N 43°03' E 006°38'714.8
2019-Aug-17 17:00N 43°09' E 006°44'714.7
2019-Aug-17 16:30N 43°15' E 006°50'714.7
2019-Aug-17 16:00N 43°21' E 006°55'714.5
2019-Aug-17 15:30N 43°28' E 006°59'4 8.8
2019-Aug-17 15:00N 43°32' E 007°01'0 0.7
2019-Aug-17 14:55N 43°32' E 007°01'0 0.2
2019-Aug-17 14:30N 43°32' E 007°01'0 1.4
2019-Aug-17 14:28N 43°32' E 007°01'0 4.9
2019-Aug-17 14:22N 43°33' E 007°01'0 0.1
2019-Aug-17 13:58N 43°33' E 007°01'116.5
2019-Aug-17 13:57N 43°32' E 007°01'1122.0
2019-Aug-17 13:56N 43°33' E 007°01'0 1.1
2019-Aug-17 13:30N 43°32' E 007°01'080.3
2019-Aug-17 13:29N 43°33' E 007°01'111.0
2019-Aug-17 13:27N 43°32' E 007°01'0 1.0
2019-Aug-17 13:00N 43°33' E 007°01'0 0.2
2019-Aug-17 12:52N 43°33' E 007°01'015.1
2019-Aug-17 12:51N 43°32' E 007°01'0 0.4
2019-Aug-17 12:30N 43°32' E 007°01'0 0.9
2019-Aug-17 12:24N 43°32' E 007°01'0 0.6
2019-Aug-17 12:21N 43°32' E 007°01'0 0.1
2019-Aug-17 12:00N 43°32' E 007°01'0 0.8
2019-Aug-17 11:57N 43°32' E 007°01'0 0.7
2019-Aug-17 11:54N 43°32' E 007°01'1 1.4
2019-Aug-17 11:30N 43°33' E 007°01'0 7.0
2019-Aug-17 11:28N 43°33' E 007°01'119.6
2019-Aug-17 11:27N 43°32' E 007°01'1 1.1
2019-Aug-17 10:59N 43°33' E 007°01'0 5.9
2019-Aug-17 10:57N 43°33' E 007°01'1156.6
2019-Aug-17 10:57N 43°32' E 007°01'0 0.1
2019-Aug-17 10:30N 43°32' E 007°01'0 0.7
2019-Aug-17 10:27N 43°32' E 007°01'115.8
2019-Aug-17 10:24N 43°33' E 007°01'1 1.3
2019-Aug-17 10:00N 43°32' E 007°01'0 1.1
2019-Aug-17 09:57N 43°32' E 007°01'0 0.4
2019-Aug-17 09:51N 43°32' E 007°01'0 0.0
2019-Aug-17 09:27N 43°32' E 007°01'0 3.1
2019-Aug-17 09:27N 43°32' E 007°01'0 1.0
2019-Aug-17 09:16N 43°32' E 007°01'0 0.4
2019-Aug-17 08:57N 43°32' E 007°01'0 7.3
2019-Aug-17 08:55N 43°32' E 007°01'0 0.8
2019-Aug-17 08:25N 43°33' E 007°01'1 7.3
2019-Aug-17 08:21N 43°32' E 007°01'0 0.5
2019-Aug-17 08:14N 43°32' E 007°01'0 2.1
2019-Aug-17 08:00N 43°33' E 007°01'0242.6
2019-Aug-17 08:00N 43°32' E 007°01'0 0.4
2019-Aug-17 07:51N 43°32' E 007°01'1 1.8
2019-Aug-17 07:30N 43°33' E 007°01'125.1
2019-Aug-17 07:29N 43°32' E 007°01'0 0.9
2019-Aug-17 07:27N 43°32' E 007°01'0 1.0
2019-Aug-17 07:00N 43°33' E 007°01'0 6.8
2019-Aug-17 06:57N 43°32' E 007°01'1 5.1
2019-Aug-17 06:50N 43°33' E 007°01'1 1.6
2019-Aug-17 06:28N 43°32' E 007°01'0 7.6
2019-Aug-17 06:27N 43°32' E 007°01'0 1.7
2019-Aug-17 06:23N 43°32' E 007°01'0 0.3
2019-Aug-17 06:00N 43°32' E 007°01'0 1.9
2019-Aug-17 05:57N 43°32' E 007°01'1110.7
2019-Aug-17 05:56N 43°33' E 007°01'1 1.3
2019-Aug-17 05:30N 43°32' E 007°01'0 9.8
2019-Aug-17 05:30N 43°32' E 007°01'0 3.0
2019-Aug-17 05:24N 43°32' E 007°01'3 6.4
2019-Aug-17 05:00N 43°29' E 007°01'2 4.3
2019-Aug-17 04:30N 43°27' E 007°01'2 4.9
2019-Aug-17 04:00N 43°25' E 006°59'2 4.3
2019-Aug-17 03:30N 43°23' E 006°57'2 4.4
2019-Aug-17 03:00N 43°22' E 006°56'2 4.2
2019-Aug-17 02:30N 43°20' E 006°55'2 4.0
2019-Aug-17 02:00N 43°18' E 006°53'2 3.9
2019-Aug-17 01:30N 43°16' E 006°52'1 3.0
2019-Aug-17 01:00N 43°15' E 006°52'1 2.8
2019-Aug-17 00:30N 43°13' E 006°51'1 2.8
2019-Aug-17 00:00N 43°12' E 006°51'1 2.8
2019-Aug-16 23:30N 43°11' E 006°50'1 2.8
2019-Aug-16 23:00N 43°09' E 006°50'2 3.1
2019-Aug-16 22:30N 43°08' E 006°50'2 3.6
2019-Aug-16 22:00N 43°07' E 006°52'2 3.7
2019-Aug-16 21:30N 43°07' E 006°55'3 6.9
2019-Aug-16 21:00N 43°10' E 006°56'4 7.5
2019-Aug-16 20:30N 43°14' E 006°57'2 4.1
2019-Aug-16 20:00N 43°15' E 006°58'8619.3
2019-Aug-16 20:00N 43°12' E 006°48'1020.2 340 / 21014.010.8 24.021.1
2019-Aug-16 19:30N 43°17' E 006°60'2 3.3
2019-Aug-16 19:00N 43°18' E 007°02'2 3.8
2019-Aug-16 18:30N 43°18' E 007°04'2 3.8
2019-Aug-16 18:00N 43°18' E 007°07'2 3.8
2019-Aug-16 17:30N 43°18' E 007°10'2 3.4
2019-Aug-16 17:00N 43°18' E 007°12'2 3.8
2019-Aug-16 16:30N 43°19' E 007°14'2 4.0
2019-Aug-16 16:00N 43°20' E 007°16'2 4.6
2019-Aug-16 15:30N 43°22' E 007°18'3 6.0
2019-Aug-16 15:00N 43°24' E 007°21'3 6.7
2019-Aug-16 14:30N 43°26' E 007°24'3 6.8
2019-Aug-16 14:00N 43°29' E 007°28'4 8.1
2019-Aug-16 13:30N 43°33' E 007°27'611.1
2019-Aug-16 13:00N 43°38' E 007°24'3 6.6
2019-Aug-16 12:30N 43°41' E 007°24'1 2.8
2019-Aug-16 12:00N 43°42' E 007°25'1 3.1
2019-Aug-16 11:42N 43°43' E 007°26'0 1.2
2019-Aug-16 11:30N 43°43' E 007°26'0 4.6
2019-Aug-16 11:29N 43°43' E 007°26'0 0.6
2019-Aug-16 11:04N 43°43' E 007°26'0 0.8
2019-Aug-16 11:01N 43°43' E 007°26'015.6
2019-Aug-16 11:00N 43°43' E 007°26'1 2.7
2019-Aug-16 10:48N 43°44' E 007°26'1 4.1
2019-Aug-16 10:30N 43°43' E 007°27'180.4
2019-Aug-16 10:29N 43°44' E 007°26'113.3
2019-Aug-16 10:27N 43°44' E 007°27'0 0.1
2019-Aug-16 10:00N 43°44' E 007°27'0 1.3
2019-Aug-16 09:57N 43°44' E 007°27'1 2.8
2019-Aug-16 09:39N 43°44' E 007°26'1 3.6
2019-Aug-16 09:26N 43°44' E 007°27'3 6.9
2019-Aug-16 09:00N 43°42' E 007°31'815.5
2019-Aug-16 08:30N 43°40' E 007°40'815.9
2019-Aug-16 08:00N 43°37' E 007°51'816.0
2019-Aug-16 07:30N 43°34' E 008°01'815.9
2019-Aug-16 07:00N 43°31' E 008°11'815.9
2019-Aug-16 06:29N 43°28' E 008°22'715.8
2019-Aug-16 06:00N 43°25' E 008°32'815.4
2019-Aug-16 05:30N 43°22' E 008°41'815.3
2019-Aug-16 05:00N 43°19' E 008°51'815.3
2019-Aug-16 04:30N 43°17' E 009°01'715.0
2019-Aug-16 04:00N 43°14' E 009°11'714.7
2019-Aug-16 03:30N 43°11' E 009°20'815.0
2019-Aug-16 03:00N 43°08' E 009°30'714.7
2019-Aug-16 02:30N 43°05' E 009°38'1414.5
2019-Aug-16 01:32N 42°51' E 009°44'114.5
2019-Aug-16 01:28N 42°51' E 009°45'714.8
2019-Aug-16 01:00N 42°47' E 009°53'715.2
2019-Aug-16 00:30N 42°43' E 010°02'915.3
2019-Aug-15 23:55N 42°38' E 010°12'715.0
2019-Aug-15 23:25N 42°33' E 010°20'914.6
2019-Aug-15 22:48N 42°28' E 010°30'412.3
2019-Aug-15 22:30N 42°25' E 010°34'712.2
2019-Aug-15 21:53N 42°21' E 010°42'1211.9
2019-Aug-15 20:55N 42°14' E 010°54'1212.9
2019-Aug-15 20:00N 42°06' E 011°06'236.4 270 / 151013.010.8 24.019.6
2019-Aug-15 19:57N 42°07' E 011°07'612.4
2019-Aug-15 19:30N 42°07' E 011°15'712.3
2019-Aug-15 18:58N 42°07' E 011°24'712.0
2019-Aug-15 18:24N 42°06' E 011°33'511.5
2019-Aug-15 18:00N 42°06' E 011°39'113 5.2
2019-Aug-14 20:21N 40°42' E 013°20'514.5
2019-Aug-14 20:00N 40°40' E 013°26'5284.6
2019-Aug-14 20:00N 40°36' E 013°24'918.2 320 / 201010.010.8 24.021.1
2019-Aug-14 19:31N 40°38' E 013°35'714.2
2019-Aug-14 19:00N 40°36' E 013°44'299.5
2019-Aug-14 19:00N 40°36' E 013°42'917.6 320 / 201008.010.8 24.018.0
2019-Aug-14 18:30N 40°34' E 013°53'714.1
2019-Aug-14 18:01N 40°32' E 014°02'714.1
2019-Aug-14 17:29N 40°30' E 014°11'613.3
2019-Aug-14 17:00N 40°32' E 014°19'713.6
2019-Aug-14 16:30N 40°34' E 014°28'7 0.7
2019-Aug-14 05:28N 40°36' E 014°37'711.9
2019-Aug-14 04:53N 40°29' E 014°39'411.5
2019-Aug-14 04:30N 40°25' E 014°41'611.3
2019-Aug-14 04:00N 40°20' E 014°42'611.1
2019-Aug-14 03:30N 40°14' E 014°44'7813.2
2019-Aug-13 21:36N 38°60' E 015°15'215.8
2019-Aug-13 21:27N 38°58' E 015°16'715.5
2019-Aug-13 21:00N 38°51' E 015°19'3207.8
2019-Aug-13 21:00N 38°48' E 015°18'611.4 300 / 151009.010.8 25.020.7
2019-Aug-13 20:30N 38°44' E 015°23'815.8
2019-Aug-13 20:00N 38°37' E 015°28'4232.5
2019-Aug-13 20:00N 38°36' E 015°24'919.0 270 / 101009.010.8 25.020.7
2019-Aug-13 19:30N 38°30' E 015°33'714.4
2019-Aug-13 18:59N 38°24' E 015°38'612.0
2019-Aug-13 18:30N 38°19' E 015°41'611.4
2019-Aug-13 18:00N 38°14' E 015°37'713.6
2019-Aug-13 17:30N 38°07' E 015°35'21 1.7
2019-Aug-13 05:13N 37°50' E 015°20'516.8
2019-Aug-13 04:56N 37°50' E 015°26'817.8
2019-Aug-13 04:30N 37°49' E 015°36'918.6
2019-Aug-13 04:00N 37°50' E 015°48'918.7
2019-Aug-13 03:31N 37°49' E 015°59'267 8.5
2019-Aug-11 20:00N 41°48' E 018°36'129 5.9 320 / 141011.010.8 28.023.9
2019-Aug-10 22:11N 42°46' E 016°01'2016.4
2019-Aug-10 21:00N 42°54' E 015°36'615.9 360 / 51013.0 26.023.2
2019-Aug-10 20:35N 42°58' E 015°29'116.3
2019-Aug-10 20:30N 42°59' E 015°27'2615.1
2019-Aug-10 18:46N 43°20' E 015°06'416.4
2019-Aug-10 18:30N 43°24' E 015°05'816.1
2019-Aug-10 18:00N 43°32' E 015°01'816.0
2019-Aug-10 17:30N 43°40' E 014°59'816.0
2019-Aug-10 17:00N 43°47' E 014°56'815.8
2019-Aug-10 16:30N 43°55' E 014°52'816.0
2019-Aug-10 16:00N 44°02' E 014°50'815.8
2019-Aug-10 15:30N 44°10' E 014°47'611.8
2019-Aug-10 15:00N 44°12' E 014°55'16 2.3
2019-Aug-10 08:02N 44°05' E 015°15'0 0.0
2019-Aug-10 07:50N 44°05' E 015°15'1 0.2
2019-Aug-10 04:40N 44°05' E 015°15'1 5.5
2019-Aug-10 04:31N 44°06' E 015°14'714.4
2019-Aug-10 04:00N 44°11' E 015°06'816.2
2019-Aug-10 03:30N 44°15' E 014°57'816.5
2019-Aug-10 03:00N 44°19' E 014°47'816.3
2019-Aug-10 02:30N 44°23' E 014°37'815.5
2019-Aug-10 02:00N 44°24' E 014°26'714.8
2019-Aug-10 01:30N 44°25' E 014°16'  
Track history (hours):
 
Tides and Currents Weather Stations Pressure Air Temp Water Temp Dewpoint Dewpoint Depression Visibility Wind Speed Wind Dir Waves Ship Positions

Seven Seas Voyager

Last reported at 2019-Aug-20 01:27 UTC. Time now 2019-Aug-20 09:38 UTC.
Position N 42°38' E 004°22'.

Length 205 m; draft 7 m.

Type: Ship. MMSI: 31151000.

Date/timePositionNaut miles runAvg speedWind from/ knotsBaromVisibWave heightAir tempDewpointWater temp
2019-Aug-20 01:27N 42°38' E 004°22'10015.6
2019-Aug-19 19:00N 41°30' E 002°42'1 2.9 070 / 271016.010.8 25.019.1
2019-Aug-19 18:47N 41°31' E 002°42'615.2
2019-Aug-19 18:21N 41°27' E 002°34'515.4
2019-Aug-19 18:01N 41°24' E 002°28'815.3
2019-Aug-19 17:31N 41°20' E 002°20'714.7
2019-Aug-19 17:01N 41°16' E 002°12'510.2
2019-Aug-19 16:30N 41°21' E 002°10'1 1.4
2019-Aug-19 15:55N 41°22' E 002°11'0 0.0
2019-Aug-19 15:25N 41°22' E 002°11'0 0.0
2019-Aug-19 14:55N 41°22' E 002°11'0 0.0
2019-Aug-19 14:25N 41°22' E 002°11'0 0.0
2019-Aug-19 13:55N 41°22' E 002°11'0 0.0
2019-Aug-19 13:19N 41°22' E 002°11'0 0.0
2019-Aug-19 12:55N 41°22' E 002°11'0 0.0
2019-Aug-19 12:25N 41°22' E 002°11'0 0.0
2019-Aug-19 11:55N 41°22' E 002°11'0 0.0
2019-Aug-19 11:25N 41°22' E 002°11'0 0.0
2019-Aug-19 10:55N 41°22' E 002°11'0 0.0
2019-Aug-19 10:25N 41°22' E 002°11'0 0.0
2019-Aug-19 09:55N 41°22' E 002°11'0 0.0
2019-Aug-19 09:25N 41°22' E 002°11'0 0.0
2019-Aug-19 08:55N 41°22' E 002°11'0 0.0
2019-Aug-19 08:19N 41°22' E 002°11'0 0.0
2019-Aug-19 07:55N 41°22' E 002°11'0 0.0
2019-Aug-19 07:25N 41°22' E 002°11'0 0.0
2019-Aug-19 06:55N 41°22' E 002°11'0 0.0
2019-Aug-19 06:25N 41°22' E 002°11'0 0.0
2019-Aug-19 05:55N 41°22' E 002°11'0 0.0
2019-Aug-19 05:25N 41°22' E 002°11'0 0.0
2019-Aug-19 04:55N 41°22' E 002°11'0 0.0
2019-Aug-19 04:25N 41°22' E 002°11'0 0.0
2019-Aug-19 03:55N 41°22' E 002°11'0 0.3
2019-Aug-19 03:30N 41°22' E 002°11'3 6.5
2019-Aug-19 03:00N 41°18' E 002°10'4 8.5
2019-Aug-19 02:31N 41°16' E 002°15'510.9
2019-Aug-19 02:01N 41°16' E 002°22'510.5
2019-Aug-19 01:30N 41°16' E 002°30'510.1
2019-Aug-19 01:00N 41°16' E 002°36'5 9.5
2019-Aug-19 00:27N 41°18' E 002°43'5 9.7
2019-Aug-18 23:56N 41°21' E 002°48'4 9.6
2019-Aug-18 23:30N 41°23' E 002°53'5 9.9
2019-Aug-18 23:00N 41°26' E 002°58'5 9.3
2019-Aug-18 22:30N 41°29' E 003°02'510.1
2019-Aug-18 22:00N 41°35' E 003°02'510.0
2019-Aug-18 21:30N 41°39' E 003°04'610.6
2019-Aug-18 20:59N 41°45' E 003°06'3 3.3
2019-Aug-18 20:00N 41°48' E 003°06'24 1.5 180 / 101011.010.8 23.021.6
2019-Aug-18 03:38N 41°58' E 003°36'214.2
2019-Aug-18 03:30N 41°58' E 003°38'814.4
2019-Aug-18 02:58N 42°01' E 003°48'714.7
2019-Aug-18 02:30N 42°04' E 003°56'1214.8
2019-Aug-18 01:40N 42°09' E 004°11'614.5
2019-Aug-18 01:15N 42°11' E 004°19'414.7
2019-Aug-18 01:00N 42°13' E 004°23'714.8
2019-Aug-18 00:30N 42°15' E 004°33'815.1
2019-Aug-18 00:00N 42°18' E 004°42'815.1
2019-Aug-17 23:30N 42°21' E 004°51'815.0
2019-Aug-17 22:59N 42°24' E 005°01'815.0
2019-Aug-17 22:27N 42°27' E 005°11'715.0
2019-Aug-17 22:00N 42°30' E 005°20'714.9
2019-Aug-17 21:30N 42°33' E 005°29'815.0
2019-Aug-17 21:00N 42°36' E 005°38'2122.8
2019-Aug-17 21:00N 42°36' E 005°36'918.4 360 / 101015.010.8 23.021.6
2019-Aug-17 20:30N 42°39' E 005°48'611.2
2019-Aug-17 20:00N 42°42' E 005°54'531.5 230 / 151015.010.8 23.021.6
2019-Aug-17 19:51N 42°42' E 006°00'515.0
2019-Aug-17 19:30N 42°45' E 006°07'714.9
2019-Aug-17 19:00N 42°49' E 006°15'714.7
2019-Aug-17 18:30N 42°53' E 006°23'1515.0
2019-Aug-17 17:30N 43°03' E 006°38'714.8
2019-Aug-17 17:00N 43°09' E 006°44'714.7
2019-Aug-17 16:30N 43°15' E 006°50'714.7
2019-Aug-17 16:00N 43°21' E 006°55'714.5
2019-Aug-17 15:30N 43°28' E 006°59'4 8.8
2019-Aug-17 15:00N 43°32' E 007°01'0 0.7
2019-Aug-17 14:55N 43°32' E 007°01'0 0.2
2019-Aug-17 14:30N 43°32' E 007°01'0 1.4
2019-Aug-17 14:28N 43°32' E 007°01'0 4.9
2019-Aug-17 14:22N 43°33' E 007°01'0 0.1
2019-Aug-17 13:58N 43°33' E 007°01'116.5
2019-Aug-17 13:57N 43°32' E 007°01'1122.0
2019-Aug-17 13:56N 43°33' E 007°01'0 1.1
2019-Aug-17 13:30N 43°32' E 007°01'080.3
2019-Aug-17 13:29N 43°33' E 007°01'111.0
2019-Aug-17 13:27N 43°32' E 007°01'0 1.0
2019-Aug-17 13:00N 43°33' E 007°01'0 0.2
2019-Aug-17 12:52N 43°33' E 007°01'015.1
2019-Aug-17 12:51N 43°32' E 007°01'0 0.4
2019-Aug-17 12:30N 43°32' E 007°01'0 0.9
2019-Aug-17 12:24N 43°32' E 007°01'0 0.6
2019-Aug-17 12:21N 43°32' E 007°01'0 0.1
2019-Aug-17 12:00N 43°32' E 007°01'0 0.8
2019-Aug-17 11:57N 43°32' E 007°01'0 0.7
2019-Aug-17 11:54N 43°32' E 007°01'1 1.4
2019-Aug-17 11:30N 43°33' E 007°01'0 7.0
2019-Aug-17 11:28N 43°33' E 007°01'119.6
2019-Aug-17 11:27N 43°32' E 007°01'1 1.1
2019-Aug-17 10:59N 43°33' E 007°01'0 5.9
2019-Aug-17 10:57N 43°33' E 007°01'1156.6
2019-Aug-17 10:57N 43°32' E 007°01'0 0.1
2019-Aug-17 10:30N 43°32' E 007°01'0 0.7
2019-Aug-17 10:27N 43°32' E 007°01'115.8
2019-Aug-17 10:24N 43°33' E 007°01'1 1.3
2019-Aug-17 10:00N 43°32' E 007°01'0 1.1
2019-Aug-17 09:57N 43°32' E 007°01'0 0.4
2019-Aug-17 09:51N 43°32' E 007°01'0 0.0
2019-Aug-17 09:27N 43°32' E 007°01'0 3.1
2019-Aug-17 09:27N 43°32' E 007°01'0 1.0
2019-Aug-17 09:16N 43°32' E 007°01'0 0.4
2019-Aug-17 08:57N 43°32' E 007°01'0 7.3
2019-Aug-17 08:55N 43°32' E 007°01'0 0.8
2019-Aug-17 08:25N 43°33' E 007°01'1 7.3
2019-Aug-17 08:21N 43°32' E 007°01'0 0.5
2019-Aug-17 08:14N 43°32' E 007°01'0 2.1
2019-Aug-17 08:00N 43°33' E 007°01'0242.6
2019-Aug-17 08:00N 43°32' E 007°01'0 0.4
2019-Aug-17 07:51N 43°32' E 007°01'1 1.8
2019-Aug-17 07:30N 43°33' E 007°01'125.1
2019-Aug-17 07:29N 43°32' E 007°01'0 0.9
2019-Aug-17 07:27N 43°32' E 007°01'0 1.0
2019-Aug-17 07:00N 43°33' E 007°01'0 6.8
2019-Aug-17 06:57N 43°32' E 007°01'1 5.1
2019-Aug-17 06:50N 43°33' E 007°01'1 1.6
2019-Aug-17 06:28N 43°32' E 007°01'0 7.6
2019-Aug-17 06:27N 43°32' E 007°01'0 1.7
2019-Aug-17 06:23N 43°32' E 007°01'0 0.3
2019-Aug-17 06:00N 43°32' E 007°01'0 1.9
2019-Aug-17 05:57N 43°32' E 007°01'1110.7
2019-Aug-17 05:56N 43°33' E 007°01'1 1.3
2019-Aug-17 05:30N 43°32' E 007°01'0 9.8
2019-Aug-17 05:30N 43°32' E 007°01'0 3.0
2019-Aug-17 05:24N 43°32' E 007°01'3 6.4
2019-Aug-17 05:00N 43°29' E 007°01'2 4.3
2019-Aug-17 04:30N 43°27' E 007°01'2 4.9
2019-Aug-17 04:00N 43°25' E 006°59'2 4.3
2019-Aug-17 03:30N 43°23' E 006°57'2 4.4
2019-Aug-17 03:00N 43°22' E 006°56'2 4.2
2019-Aug-17 02:30N 43°20' E 006°55'2 4.0
2019-Aug-17 02:00N 43°18' E 006°53'2 3.9
2019-Aug-17 01:30N 43°16' E 006°52'1 3.0
2019-Aug-17 01:00N 43°15' E 006°52'1 2.8
2019-Aug-17 00:30N 43°13' E 006°51'1 2.8
2019-Aug-17 00:00N 43°12' E 006°51'1 2.8
2019-Aug-16 23:30N 43°11' E 006°50'1 2.8
2019-Aug-16 23:00N 43°09' E 006°50'2 3.1
2019-Aug-16 22:30N 43°08' E 006°50'2 3.6
2019-Aug-16 22:00N 43°07' E 006°52'2 3.7
2019-Aug-16 21:30N 43°07' E 006°55'3 6.9
2019-Aug-16 21:00N 43°10' E 006°56'4 7.5
2019-Aug-16 20:30N 43°14' E 006°57'2 4.1
2019-Aug-16 20:00N 43°15' E 006°58'8619.3
2019-Aug-16 20:00N 43°12' E 006°48'1020.2 340 / 21014.010.8 24.021.1
2019-Aug-16 19:30N 43°17' E 006°60'2 3.3
2019-Aug-16 19:00N 43°18' E 007°02'2 3.8
2019-Aug-16 18:30N 43°18' E 007°04'2 3.8
2019-Aug-16 18:00N 43°18' E 007°07'2 3.8
2019-Aug-16 17:30N 43°18' E 007°10'2 3.4
2019-Aug-16 17:00N 43°18' E 007°12'2 3.8
2019-Aug-16 16:30N 43°19' E 007°14'2 4.0
2019-Aug-16 16:00N 43°20' E 007°16'2 4.6
2019-Aug-16 15:30N 43°22' E 007°18'3 6.0
2019-Aug-16 15:00N 43°24' E 007°21'3 6.7
2019-Aug-16 14:30N 43°26' E 007°24'3 6.8
2019-Aug-16 14:00N 43°29' E 007°28'4 8.1
2019-Aug-16 13:30N 43°33' E 007°27'611.1
2019-Aug-16 13:00N 43°38' E 007°24'3 6.6
2019-Aug-16 12:30N 43°41' E 007°24'1 2.8
2019-Aug-16 12:00N 43°42' E 007°25'1 3.1
2019-Aug-16 11:42N 43°43' E 007°26'0 1.2
2019-Aug-16 11:30N 43°43' E 007°26'0 4.6
2019-Aug-16 11:29N 43°43' E 007°26'0 0.6
2019-Aug-16 11:04N 43°43' E 007°26'0 0.8
2019-Aug-16 11:01N 43°43' E 007°26'015.6
2019-Aug-16 11:00N 43°43' E 007°26'1 2.7
2019-Aug-16 10:48N 43°44' E 007°26'1 4.1
2019-Aug-16 10:30N 43°43' E 007°27'180.4
2019-Aug-16 10:29N 43°44' E 007°26'113.3
2019-Aug-16 10:27N 43°44' E 007°27'0 0.1
2019-Aug-16 10:00N 43°44' E 007°27'0 1.3
2019-Aug-16 09:57N 43°44' E 007°27'1 2.8
2019-Aug-16 09:39N 43°44' E 007°26'1 3.6
2019-Aug-16 09:26N 43°44' E 007°27'3 6.9
2019-Aug-16 09:00N 43°42' E 007°31'815.5
2019-Aug-16 08:30N 43°40' E 007°40'815.9
2019-Aug-16 08:00N 43°37' E 007°51'816.0
2019-Aug-16 07:30N 43°34' E 008°01'815.9
2019-Aug-16 07:00N 43°31' E 008°11'815.9
2019-Aug-16 06:29N 43°28' E 008°22'715.8
2019-Aug-16 06:00N 43°25' E 008°32'815.4
2019-Aug-16 05:30N 43°22' E 008°41'815.3
2019-Aug-16 05:00N 43°19' E 008°51'815.3
2019-Aug-16 04:30N 43°17' E 009°01'715.0
2019-Aug-16 04:00N 43°14' E 009°11'714.7
2019-Aug-16 03:30N 43°11' E 009°20'815.0
2019-Aug-16 03:00N 43°08' E 009°30'714.7
2019-Aug-16 02:30N 43°05' E 009°38'1414.5
2019-Aug-16 01:32N 42°51' E 009°44'114.5
2019-Aug-16 01:28N 42°51' E 009°45'714.8
2019-Aug-16 01:00N 42°47' E 009°53'715.2
2019-Aug-16 00:30N 42°43' E 010°02'915.3
2019-Aug-15 23:55N 42°38' E 010°12'715.0
2019-Aug-15 23:25N 42°33' E 010°20'914.6
2019-Aug-15 22:48N 42°28' E 010°30'412.3
2019-Aug-15 22:30N 42°25' E 010°34'712.2
2019-Aug-15 21:53N 42°21' E 010°42'1211.9
2019-Aug-15 20:55N 42°14' E 010°54'1212.9
2019-Aug-15 20:00N 42°06' E 011°06'236.4 270 / 151013.010.8 24.019.6
2019-Aug-15 19:57N 42°07' E 011°07'612.4
2019-Aug-15 19:30N 42°07' E 011°15'712.3
2019-Aug-15 18:58N 42°07' E 011°24'712.0
2019-Aug-15 18:24N 42°06' E 011°33'511.5
2019-Aug-15 18:00N 42°06' E 011°39'113 5.2
2019-Aug-14 20:21N 40°42' E 013°20'514.5
2019-Aug-14 20:00N 40°40' E 013°26'5284.6
2019-Aug-14 20:00N 40°36' E 013°24'918.2 320 / 201010.010.8 24.021.1
2019-Aug-14 19:31N 40°38' E 013°35'714.2
2019-Aug-14 19:00N 40°36' E 013°44'299.5
2019-Aug-14 19:00N 40°36' E 013°42'917.6 320 / 201008.010.8 24.018.0
2019-Aug-14 18:30N 40°34' E 013°53'714.1
2019-Aug-14 18:01N 40°32' E 014°02'714.1
2019-Aug-14 17:29N 40°30' E 014°11'613.3
2019-Aug-14 17:00N 40°32' E 014°19'713.6
2019-Aug-14 16:30N 40°34' E 014°28'7 0.7
2019-Aug-14 05:28N 40°36' E 014°37'711.9
2019-Aug-14 04:53N 40°29' E 014°39'411.5
2019-Aug-14 04:30N 40°25' E 014°41'611.3
2019-Aug-14 04:00N 40°20' E 014°42'611.1
2019-Aug-14 03:30N 40°14' E 014°44'7813.2
2019-Aug-13 21:36N 38°60' E 015°15'215.8
2019-Aug-13 21:27N 38°58' E 015°16'715.5
2019-Aug-13 21:00N 38°51' E 015°19'3207.8
2019-Aug-13 21:00N 38°48' E 015°18'611.4 300 / 151009.010.8 25.020.7
2019-Aug-13 20:30N 38°44' E 015°23'815.8
2019-Aug-13 20:00N 38°37' E 015°28'4232.5
2019-Aug-13 20:00N 38°36' E 015°24'919.0 270 / 101009.010.8 25.020.7
2019-Aug-13 19:30N 38°30' E 015°33'714.4
2019-Aug-13 18:59N 38°24' E 015°38'612.0
2019-Aug-13 18:30N 38°19' E 015°41'611.4
2019-Aug-13 18:00N 38°14' E 015°37'713.6
2019-Aug-13 17:30N 38°07' E 015°35'21 1.7
2019-Aug-13 05:13N 37°50' E 015°20'516.8
2019-Aug-13 04:56N 37°50' E 015°26'817.8
2019-Aug-13 04:30N 37°49' E 015°36'918.6
2019-Aug-13 04:00N 37°50' E 015°48'918.7
2019-Aug-13 03:31N 37°49' E 015°59'267 8.5
2019-Aug-11 20:00N 41°48' E 018°36'129 5.9 320 / 141011.010.8 28.023.9
2019-Aug-10 22:11N 42°46' E 016°01'2016.4
2019-Aug-10 21:00N 42°54' E 015°36'615.9 360 / 51013.0 26.023.2
2019-Aug-10 20:35N 42°58' E 015°29'116.3
2019-Aug-10 20:30N 42°59' E 015°27'2615.1
2019-Aug-10 18:46N 43°20' E 015°06'416.4
2019-Aug-10 18:30N 43°24' E 015°05'816.1
2019-Aug-10 18:00N 43°32' E 015°01'816.0
2019-Aug-10 17:30N 43°40' E 014°59'816.0
2019-Aug-10 17:00N 43°47' E 014°56'815.8
2019-Aug-10 16:30N 43°55' E 014°52'816.0
2019-Aug-10 16:00N 44°02' E 014°50'815.8
2019-Aug-10 15:30N 44°10' E 014°47'611.8
2019-Aug-10 15:00N 44°12' E 014°55'16 2.3
2019-Aug-10 08:02N 44°05' E 015°15'0 0.0
2019-Aug-10 07:50N 44°05' E 015°15'1 0.2
2019-Aug-10 04:40N 44°05' E 015°15'1 5.5
2019-Aug-10 04:31N 44°06' E 015°14'714.4
2019-Aug-10 04:00N 44°11' E 015°06'816.2
2019-Aug-10 03:30N 44°15' E 014°57'816.5
2019-Aug-10 03:00N 44°19' E 014°47'816.3
2019-Aug-10 02:30N 44°23' E 014°37'815.5
2019-Aug-10 02:00N 44°24' E 014°26'714.8
2019-Aug-10 01:30N 44°25' E 014°16'  

Dump ship's entire track history